Time;durP1;ratioP1;P1;durP2;ratioP2;P2;SDS_P1;SDS_P2;PMS_P1;PMS_P2;Temp;Humidity;BMP_temperature;BMP_pressure;BME280_temperature;BME280_humidity;BME280_pressure;Samples;Min_cycle;Max_cycle;Signal;HPM_P1;HPM_P2
2023/03/30 00:03:53;;;;;;;36.10;17.90;;;;;8.80;96154.00;;;;8438926;28;20346;-69
2023/03/30 00:07:57;;;;;;;46.87;18.87;;;;;8.70;96140.00;;;;8447493;27;20198;-68
2023/03/30 00:12:09;;;;;;;40.00;18.97;;;;;8.70;96145.00;;;;8436851;28;20225;-68
2023/03/30 00:16:13;;;;;;;40.92;19.92;;;;;8.60;96141.00;;;;8428564;28;20207;-67
2023/03/30 00:20:19;;;;;;;40.37;19.33;;;;;8.50;96130.00;;;;8445564;28;20851;-67
2023/03/30 00:24:25;;;;;;;43.33;20.60;;;;;8.50;96121.00;;;;8431926;27;20195;-70
2023/03/30 00:28:41;;;;;;;45.30;20.60;;;;;8.50;96114.00;;;;8415969;27;20245;-68
2023/03/30 00:32:47;;;;;;;45.27;21.10;;;;;8.50;96106.00;;;;8447861;27;20191;-69
2023/03/30 00:36:52;;;;;;;47.27;21.17;;;;;8.50;96108.00;;;;8439780;27;20208;-68
2023/03/30 00:41:00;;;;;;;49.23;20.63;;;;;8.40;96099.00;;;;8438662;27;20223;-69
2023/03/30 00:45:18;;;;;;;42.57;19.87;;;;;8.40;96090.00;;;;8443746;27;20190;-67
2023/03/30 00:49:21;;;;;;;47.50;21.13;;;;;8.30;96089.00;;;;8446971;28;20211;-68
2023/03/30 00:53:29;;;;;;;48.87;21.43;;;;;8.30;96094.00;;;;8447534;28;20541;-70
2023/03/30 00:57:43;;;;;;;43.67;21.07;;;;;8.20;96088.00;;;;8442287;28;20206;-70
2023/03/30 01:01:48;;;;;;;45.90;21.23;;;;;8.10;96086.00;;;;8448403;28;20227;-70
2023/03/30 01:05:56;;;;;;;64.27;24.83;;;;;8.10;96077.00;;;;8449171;28;20191;-66
2023/03/30 01:10:03;;;;;;;53.63;22.60;;;;;8.10;96066.00;;;;8442116;27;20243;-70
2023/03/30 01:14:13;;;;;;;52.00;22.30;;;;;8.10;96064.00;;;;8447941;27;20187;-69
2023/03/30 01:18:34;;;;;;;50.73;22.10;;;;;8.00;96050.00;;;;8444874;28;20322;-71
2023/03/30 01:23:12;;;;;;;49.53;21.60;;;;;8.00;96049.00;;;;8449130;27;20226;-69
2023/03/30 01:27:49;;;;;;;45.00;22.47;;;;;8.00;96049.00;;;;8441197;28;20299;-72
2023/03/30 01:32:10;;;;;;;51.90;22.47;;;;;8.00;96054.00;;;;8435619;28;20286;-68
2023/03/30 01:36:40;;;;;;;46.83;21.20;;;;;8.00;96046.00;;;;8445269;27;20206;-68
2023/03/30 01:40:57;;;;;;;48.40;22.63;;;;;8.00;96041.00;;;;8440193;27;20245;-68
2023/03/30 01:45:10;;;;;;;58.22;23.05;;;;;8.00;96039.00;;;;8441091;27;20739;-70
2023/03/30 01:49:21;;;;;;;46.17;21.80;;;;;8.10;96045.00;;;;8446120;27;20517;-67
2023/03/30 01:53:30;;;;;;;57.03;23.47;;;;;8.10;96042.00;;;;8437729;27;20233;-68
2023/03/30 01:57:41;;;;;;;53.97;22.17;;;;;8.10;96040.00;;;;8441067;28;20199;-71
2023/03/30 02:01:52;;;;;;;52.80;21.73;;;;;8.10;96044.00;;;;8444045;27;20265;-67
2023/03/30 02:06:02;;;;;;;48.93;21.63;;;;;8.20;96037.00;;;;8441671;27;20726;-68
2023/03/30 02:10:09;;;;;;;46.50;21.13;;;;;8.20;96032.00;;;;8439740;28;20271;-69
2023/03/30 02:14:18;;;;;;;52.58;21.92;;;;;8.20;96032.00;;;;8445894;27;20198;-68
2023/03/30 02:18:21;;;;;;;52.63;22.53;;;;;8.20;96028.00;;;;8440527;27;20249;-68
2023/03/30 02:22:26;;;;;;;55.40;23.70;;;;;8.10;96030.00;;;;8451727;27;20260;-68
2023/03/30 02:26:35;;;;;;;53.83;21.90;;;;;8.10;96022.00;;;;8443378;27;20252;-69
2023/03/30 02:30:50;;;;;;;53.90;22.60;;;;;8.10;96015.00;;;;8440365;27;20312;-69
2023/03/30 02:35:17;;;;;;;51.97;20.87;;;;;8.10;96019.00;;;;8445241;28;20210;-66
2023/03/30 02:39:32;;;;;;;48.57;20.63;;;;;8.00;95999.00;;;;8447366;28;20244;-69
2023/03/30 02:43:45;;;;;;;53.13;23.10;;;;;8.00;95983.00;;;;8422372;28;20226;-67
2023/03/30 02:48:04;;;;;;;49.53;21.33;;;;;8.00;95977.00;;;;8431853;28;20269;-68
2023/03/30 02:52:15;;;;;;;51.70;20.93;;;;;8.10;95929.00;;;;8443318;28;20197;-66
2023/03/30 02:56:25;;;;;;;47.47;19.97;;;;;8.10;95916.00;;;;8436493;28;20659;-69
2023/03/30 03:04:45;;;;;;;40.20;18.73;;;;;8.20;95935.00;;;;8281996;28;20290;-69
2023/03/30 03:08:49;;;;;;;42.77;17.90;;;;;8.30;95956.00;;;;8319928;28;20625;-71
2023/03/30 03:12:52;;;;;;;44.40;18.17;;;;;8.40;95955.00;;;;8307769;28;20197;-69
2023/03/30 03:17:08;;;;;;;38.43;18.40;;;;;8.40;95957.00;;;;8314621;28;20208;-70
2023/03/30 03:21:14;;;;;;;42.53;18.17;;;;;8.50;95955.00;;;;8315605;28;20222;-69
2023/03/30 03:25:17;;;;;;;46.80;18.20;;;;;8.60;95947.00;;;;8310901;28;20202;-67
2023/03/30 03:29:24;;;;;;;41.53;17.90;;;;;8.60;95950.00;;;;8317344;28;20197;-70
2023/03/30 03:33:30;;;;;;;41.47;17.53;;;;;8.60;95944.00;;;;8299265;28;20201;-68
2023/03/30 03:37:36;;;;;;;44.97;18.27;;;;;8.60;95931.00;;;;8327080;28;20228;-68
2023/03/30 03:41:39;;;;;;;45.67;17.48;;;;;8.60;95931.00;;;;8315559;28;20217;-69
2023/03/30 03:45:53;;;;;;;42.60;16.63;;;;;8.60;95926.00;;;;8328574;28;20202;-68
2023/03/30 03:49:56;;;;;;;43.47;17.38;;;;;8.50;95947.00;;;;8330905;28;20937;-69
2023/03/30 03:54:00;;;;;;;41.30;17.37;;;;;8.50;95948.00;;;;8328901;28;20588;-68
2023/03/30 03:58:04;;;;;;;42.37;17.80;;;;;8.50;95955.00;;;;8322121;28;20193;-67
2023/03/30 04:02:07;;;;;;;40.13;17.70;;;;;8.50;95962.00;;;;8318356;28;20225;-67
2023/03/30 04:06:11;;;;;;;38.97;16.70;;;;;8.50;95978.00;;;;8323021;28;20208;-70
2023/03/30 04:10:16;;;;;;;50.08;19.48;;;;;8.60;95995.00;;;;8315541;28;20251;-68
2023/03/30 04:14:20;;;;;;;40.50;18.43;;;;;8.60;95993.00;;;;8327503;28;20188;-69
2023/03/30 04:18:22;;;;;;;39.75;18.58;;;;;8.60;95986.00;;;;8329421;28;20244;-68
2023/03/30 04:22:26;;;;;;;42.10;18.48;;;;;8.70;95978.00;;;;8352002;28;20653;-67
2023/03/30 04:26:32;;;;;;;39.87;17.80;;;;;8.70;95981.00;;;;8347601;28;20300;-70
2023/03/30 04:30:35;;;;;;;42.95;17.15;;;;;8.70;95989.00;;;;8345700;28;20200;-68
2023/03/30 04:34:53;;;;;;;40.77;17.27;;;;;8.80;95976.00;;;;8320848;28;20201;-70
2023/03/30 04:39:00;;;;;;;42.72;17.10;;;;;8.80;95964.00;;;;8345229;28;20193;-68
2023/03/30 04:43:12;;;;;;;37.07;16.47;;;;;8.80;95959.00;;;;8358109;28;20724;-68
2023/03/30 04:47:18;;;;;;;36.87;15.97;;;;;8.80;95961.00;;;;8336516;28;20608;-70
2023/03/30 04:51:24;;;;;;;38.23;16.00;;;;;8.80;95965.00;;;;8354057;28;20205;-70
2023/03/30 04:55:30;;;;;;;35.90;15.25;;;;;8.90;95966.00;;;;8353983;28;20747;-68
2023/03/30 04:59:34;;;;;;;44.67;17.53;;;;;9.10;95963.00;;;;8359569;28;20531;-69
2023/03/30 05:03:38;;;;;;;39.37;15.80;;;;;9.10;95967.00;;;;8350508;28;20240;-71
2023/03/30 05:07:41;;;;;;;33.17;15.73;;;;;9.20;95972.00;;;;8356459;28;20196;-71
2023/03/30 05:11:45;;;;;;;33.97;14.15;;;;;9.20;95970.00;;;;8359817;28;20248;-71
2023/03/30 05:15:57;;;;;;;39.42;14.70;;;;;9.30;95961.00;;;;8352264;28;20606;-70
2023/03/30 05:20:01;;;;;;;34.35;13.23;;;;;9.40;95955.00;;;;8355063;28;20197;-70
2023/03/30 05:24:04;;;;;;;31.83;13.83;;;;;9.50;95973.00;;;;8352185;28;20233;-70
2023/03/30 05:28:12;;;;;;;28.17;11.80;;;;;9.70;95980.00;;;;8340196;28;21089;-69
2023/03/30 05:32:17;;;;;;;26.50;10.60;;;;;9.80;95970.00;;;;8360635;28;20695;-72
2023/03/30 05:36:27;;;;;;;25.38;9.18;;;;;10.10;95976.00;;;;8346089;28;20208;-70
2023/03/30 05:40:30;;;;;;;18.75;6.82;;;;;10.30;95966.00;;;;8351311;28;20281;-70
2023/03/30 05:44:34;;;;;;;20.10;4.70;;;;;10.60;95959.00;;;;8340935;28;20322;-69
2023/03/30 05:48:38;;;;;;;11.15;4.65;;;;;11.00;95960.00;;;;8342375;28;20271;-70
2023/03/30 05:52:42;;;;;;;14.48;4.00;;;;;11.30;95958.00;;;;8345156;28;20213;-70
2023/03/30 05:56:45;;;;;;;12.85;4.38;;;;;11.50;95961.00;;;;8342549;28;20197;-72
2023/03/30 06:00:53;;;;;;;15.27;3.92;;;;;11.60;95966.00;;;;8349396;28;20642;-70
2023/03/30 06:05:00;;;;;;;17.42;4.47;;;;;11.60;95970.00;;;;8352012;28;20262;-71
2023/03/30 06:09:05;;;;;;;19.05;4.25;;;;;11.70;95973.00;;;;8349633;28;20258;-69
2023/03/30 06:13:08;;;;;;;24.42;5.47;;;;;11.80;95945.00;;;;8330610;28;20715;-71
2023/03/30 06:17:32;;;;;;;19.80;4.45;;;;;11.80;95970.00;;;;8350034;28;20600;-71
2023/03/30 06:21:39;;;;;;;20.60;4.85;;;;;11.80;95975.00;;;;8341602;28;20732;-71
2023/03/30 06:25:51;;;;;;;15.13;4.47;;;;;11.90;95966.00;;;;8346110;28;21012;-72
2023/03/30 06:29:54;;;;;;;19.63;5.97;;;;;12.00;95944.00;;;;8349730;28;20691;-70
2023/03/30 06:34:01;;;;;;;25.77;5.60;;;;;12.00;95940.00;;;;8343225;28;20260;-70
2023/03/30 06:38:06;;;;;;;26.50;5.65;;;;;12.00;95943.00;;;;8328733;28;20653;-71
2023/03/30 06:42:09;;;;;;;26.58;5.60;;;;;12.00;95954.00;;;;8348253;28;20214;-72
2023/03/30 06:46:17;;;;;;;12.27;3.72;;;;;12.00;95964.00;;;;8352846;28;20230;-73
2023/03/30 06:50:20;;;;;;;24.83;5.15;;;;;12.00;95957.00;;;;8346687;28;20207;-71
2023/03/30 06:54:27;;;;;;;24.23;5.63;;;;;12.10;95939.00;;;;8348118;28;20216;-71
2023/03/30 06:58:30;;;;;;;27.13;7.85;;;;;12.40;95936.00;;;;8347240;28;20838;-71
2023/03/30 07:02:33;;;;;;;33.63;10.07;;;;;12.40;95917.00;;;;8344271;28;20224;-71
2023/03/30 07:06:39;;;;;;;30.33;11.07;;;;;12.60;95924.00;;;;8348355;28;20849;-73
2023/03/30 07:10:43;;;;;;;37.28;13.23;;;;;12.50;95926.00;;;;8348817;28;20212;-73
2023/03/30 07:14:46;;;;;;;29.98;12.98;;;;;12.30;95919.00;;;;8346517;28;20208;-72
2023/03/30 07:19:00;;;;;;;31.33;14.82;;;;;12.20;95916.00;;;;8326546;28;20279;-72
2023/03/30 07:23:06;;;;;;;41.03;15.68;;;;;12.20;95917.00;;;;8344660;28;20235;-72
2023/03/30 07:27:12;;;;;;;37.40;15.43;;;;;12.30;95914.00;;;;8347205;28;20196;-71
2023/03/30 07:31:16;;;;;;;30.63;14.43;;;;;12.20;95918.00;;;;8347417;28;20227;-73
2023/03/30 07:35:22;;;;;;;31.38;14.73;;;;;12.30;95916.00;;;;8349804;28;20627;-72
2023/03/30 07:39:25;;;;;;;32.15;13.90;;;;;12.20;95912.00;;;;8346806;28;20212;-73
2023/03/30 07:43:31;;;;;;;35.97;15.30;;;;;12.30;95900.00;;;;8349762;28;20691;-72
2023/03/30 07:47:36;;;;;;;42.00;15.75;;;;;12.40;95911.00;;;;8349217;28;20209;-71
2023/03/30 07:51:40;;;;;;;35.20;14.30;;;;;12.50;95924.00;;;;8353209;28;20242;-71
2023/03/30 07:55:45;;;;;;;28.17;13.18;;;;;12.30;95928.00;;;;8348618;28;20299;-72
2023/03/30 07:59:50;;;;;;;31.00;14.77;;;;;12.20;95919.00;;;;8346930;28;20205;-71
2023/03/30 08:03:54;;;;;;;63.22;27.13;;;;;12.10;95916.00;;;;8352119;28;20302;-71
2023/03/30 08:08:00;;;;;;;30.90;14.88;;;;;11.90;95922.00;;;;8352113;28;20196;-70
2023/03/30 08:12:09;;;;;;;35.08;14.98;;;;;11.80;95906.00;;;;8352137;28;20223;-73
2023/03/30 08:16:18;;;;;;;29.02;14.75;;;;;11.80;95904.00;;;;8350811;28;20248;-74
2023/03/30 08:20:22;;;;;;;39.85;16.75;;;;;11.80;95902.00;;;;8355097;28;20188;-73
2023/03/30 08:24:25;;;;;;;34.30;15.65;;;;;11.80;95904.00;;;;8353293;28;20231;-72
2023/03/30 08:28:31;;;;;;;33.33;14.70;;;;;11.70;95944.00;;;;8352676;28;20203;-72
2023/03/30 08:32:35;;;;;;;42.92;17.40;;;;;11.70;95939.00;;;;8349640;28;20204;-73
2023/03/30 08:36:40;;;;;;;41.63;15.98;;;;;11.60;95957.00;;;;8355058;28;20218;-73
2023/03/30 08:40:44;;;;;;;47.85;15.57;;;;;11.60;95938.00;;;;8347529;28;20523;-72
2023/03/30 08:44:52;;;;;;;44.63;16.42;;;;;11.50;95916.00;;;;8343993;28;20228;-72
2023/03/30 08:49:05;;;;;;;39.70;16.58;;;;;11.60;95912.00;;;;8355779;28;20200;-72
2023/03/30 08:53:12;;;;;;;46.17;19.05;;;;;11.80;95916.00;;;;8353318;28;20223;-72
2023/03/30 08:57:26;;;;;;;39.67;16.38;;;;;12.20;95916.00;;;;8354432;28;20324;-72
2023/03/30 09:01:42;;;;;;;38.63;15.93;;;;;12.30;95895.00;;;;8344866;28;20463;-73
2023/03/30 09:05:52;;;;;;;31.55;15.75;;;;;12.30;95898.00;;;;8330016;28;20293;-72
2023/03/30 09:09:57;;;;;;;29.38;13.57;;;;;12.50;95887.00;;;;8353279;28;20683;-73
2023/03/30 09:14:06;;;;;;;23.70;12.07;;;;;12.60;95887.00;;;;8349034;28;20585;-72
2023/03/30 09:18:15;;;;;;;25.25;12.38;;;;;12.50;95884.00;;;;8352205;28;20251;-72
2023/03/30 09:22:20;;;;;;;26.70;12.63;;;;;12.50;95897.00;;;;8349426;28;20266;-72
2023/03/30 09:26:33;;;;;;;27.83;12.95;;;;;12.50;95902.00;;;;8353489;28;20224;-71
2023/03/30 09:30:40;;;;;;;31.10;12.57;;;;;12.50;95910.00;;;;8350431;28;20200;-72
2023/03/30 09:34:46;;;;;;;31.08;13.40;;;;;12.30;95917.00;;;;8348143;28;20262;-72
2023/03/30 09:38:52;;;;;;;25.17;14.00;;;;;12.10;95946.00;;;;8352609;28;20208;-72
2023/03/30 09:43:07;;;;;;;33.00;15.23;;;;;11.90;95955.00;;;;8348964;28;20204;-71
2023/03/30 09:47:21;;;;;;;32.97;14.63;;;;;11.80;95983.00;;;;8361698;28;20688;-73
2023/03/30 09:51:28;;;;;;;34.53;14.23;;;;;11.60;95982.00;;;;8354145;28;21631;-72
2023/03/30 09:55:37;;;;;;;27.00;12.77;;;;;11.60;95948.00;;;;8343664;28;20200;-70
2023/03/30 09:59:44;;;;;;;24.98;12.05;;;;;11.70;95944.00;;;;8349526;28;20205;-71
2023/03/30 10:04:10;;;;;;;23.60;11.95;;;;;12.00;95956.00;;;;8350965;28;20931;-70
2023/03/30 10:08:21;;;;;;;24.50;13.00;;;;;12.20;95940.00;;;;8348998;28;20199;-71
2023/03/30 10:12:30;;;;;;;27.42;13.25;;;;;12.30;95942.00;;;;8338436;28;20216;-71
2023/03/30 10:16:41;;;;;;;26.67;12.98;;;;;12.40;95962.00;;;;8346958;28;20197;-71
2023/03/30 10:20:51;;;;;;;29.10;13.35;;;;;12.40;95971.00;;;;8331350;28;20208;-71
2023/03/30 10:24:59;;;;;;;26.73;13.25;;;;;12.50;95963.00;;;;8341625;28;20229;-72
2023/03/30 10:29:09;;;;;;;28.25;14.65;;;;;12.50;95966.00;;;;8347804;28;20839;-72
2023/03/30 10:33:12;;;;;;;38.00;16.00;;;;;12.60;95965.00;;;;8349735;28;20212;-72
2023/03/30 10:37:19;;;;;;;32.38;15.00;;;;;12.80;95963.00;;;;8344656;28;20247;-71
2023/03/30 10:41:24;;;;;;;32.22;12.95;;;;;13.00;95958.00;;;;8353104;28;20208;-71
2023/03/30 10:45:34;;;;;;;32.83;14.32;;;;;13.10;95951.00;;;;8347448;28;20302;-71
2023/03/30 10:49:48;;;;;;;32.92;13.10;;;;;13.40;95935.00;;;;8349139;28;20663;-72
2023/03/30 10:54:04;;;;;;;64.25;15.93;;;;;14.00;95946.00;;;;8345299;28;20213;-70
2023/03/30 10:58:18;;;;;;;23.60;11.50;;;;;14.40;95936.00;;;;8324601;28;20208;-71
2023/03/30 11:02:29;;;;;;;22.45;10.02;;;;;14.30;95939.00;;;;8349994;28;20614;-71
2023/03/30 11:06:39;;;;;;;24.80;10.40;;;;;14.30;95915.00;;;;8343440;28;20634;-72
2023/03/30 11:10:47;;;;;;;22.35;10.40;;;;;14.50;95908.00;;;;8348600;28;20201;-71
2023/03/30 11:14:56;;;;;;;20.17;8.13;;;;;14.40;95922.00;;;;8346658;28;20200;-72
2023/03/30 11:19:06;;;;;;;24.58;11.48;;;;;14.20;95941.00;;;;8349915;28;20193;-71
2023/03/30 11:23:23;;;;;;;27.55;11.90;;;;;14.00;95928.00;;;;8332111;28;20201;-72
2023/03/30 11:27:30;;;;;;;32.05;13.50;;;;;13.90;95912.00;;;;8336208;28;20280;-72
2023/03/30 11:31:47;;;;;;;28.35;11.07;;;;;13.90;95921.00;;;;8341834;28;20230;-71
2023/03/30 11:35:56;;;;;;;33.75;11.32;;;;;13.80;95934.00;;;;8346891;28;20204;-73
2023/03/30 11:40:16;;;;;;;40.85;11.05;;;;;13.80;95930.00;;;;8348647;28;20205;-71
2023/03/30 11:44:21;;;;;;;26.58;11.50;;;;;13.60;95913.00;;;;8344028;28;20224;-72
2023/03/30 11:48:56;;;;;;;31.05;10.00;;;;;13.60;95926.00;;;;8355078;28;20255;-71
2023/03/30 11:53:26;;;;;;;29.80;9.48;;;;;13.60;95960.00;;;;8361880;28;21064;-73
2023/03/30 11:57:38;;;;;;;26.90;11.05;;;;;13.50;95937.00;;;;8349715;28;20247;-72
2023/03/30 12:01:54;;;;;;;32.00;11.52;;;;;13.60;95899.00;;;;8326957;28;20290;-70
2023/03/30 12:06:23;;;;;;;24.13;8.00;;;;;13.70;95911.00;;;;8345174;28;20224;-71
2023/03/30 12:10:42;;;;;;;23.15;6.28;;;;;13.90;95918.00;;;;8353466;28;20193;-72
2023/03/30 12:14:59;;;;;;;18.05;6.57;;;;;14.00;95916.00;;;;8345743;28;20216;-70
2023/03/30 12:19:11;;;;;;;22.38;6.68;;;;;14.20;95919.00;;;;8347174;28;20835;-71
2023/03/30 12:23:29;;;;;;;22.60;8.02;;;;;14.10;95911.00;;;;8348855;28;20197;-71
2023/03/30 12:27:37;;;;;;;21.80;7.75;;;;;14.20;95892.00;;;;8348906;28;20741;-71
2023/03/30 12:32:19;;;;;;;22.38;5.97;;;;;14.30;95890.00;;;;8352502;28;20272;-71
2023/03/30 12:36:37;;;;;;;17.23;7.43;;;;;14.30;95888.00;;;;8280142;28;20236;-70
2023/03/30 12:40:46;;;;;;;12.00;4.85;;;;;14.40;95885.00;;;;8351801;28;20211;-71
2023/03/30 12:45:01;;;;;;;9.82;4.70;;;;;14.40;95887.00;;;;8357288;28;20283;-70
2023/03/30 12:49:16;;;;;;;16.20;4.82;;;;;14.30;95891.00;;;;8350419;28;20266;-71
2023/03/30 12:53:38;;;;;;;18.13;5.40;;;;;14.30;95880.00;;;;8322028;28;20235;-70
2023/03/30 12:58:00;;;;;;;20.50;6.32;;;;;14.50;95892.00;;;;8347135;28;20204;-71
2023/03/30 13:02:53;;;;;;;16.80;7.93;;;;;14.70;95899.00;;;;8347537;28;20274;-70
2023/03/30 13:07:02;;;;;;;17.27;6.43;;;;;14.90;95894.00;;;;8324538;28;20220;-72
2023/03/30 13:11:12;;;;;;;26.42;7.82;;;;;14.90;95881.00;;;;8337065;28;20205;-71
2023/03/30 13:15:46;;;;;;;22.23;8.25;;;;;15.00;95886.00;;;;8349320;28;20239;-73
2023/03/30 13:20:13;;;;;;;15.13;6.45;;;;;15.30;95889.00;;;;8354009;28;20197;-70
2023/03/30 13:24:45;;;;;;;15.45;5.43;;;;;15.40;95881.00;;;;8348118;28;20750;-70
2023/03/30 13:29:10;;;;;;;18.35;4.65;;;;;15.40;95880.00;;;;8344370;28;20205;-68
2023/03/30 13:33:19;;;;;;;18.70;5.25;;;;;15.50;95883.00;;;;8351127;28;20200;-69
2023/03/30 13:37:33;;;;;;;12.98;4.90;;;;;15.60;95871.00;;;;8337806;28;20238;-68
2023/03/30 13:41:50;;;;;;;12.38;6.80;;;;;15.40;95854.00;;;;8343097;28;20206;-68
2023/03/30 13:46:03;;;;;;;23.25;4.80;;;;;15.60;95854.00;;;;8339544;28;20271;-69
2023/03/30 13:50:24;;;;;;;14.57;5.72;;;;;15.90;95849.00;;;;8343739;28;20228;-68
2023/03/30 13:54:34;;;;;;;17.55;5.90;;;;;15.90;95836.00;;;;8347420;28;20235;-69
2023/03/30 13:58:42;;;;;;;65.70;17.05;;;;;15.80;95838.00;;;;8346942;28;20292;-68
2023/03/30 14:02:48;;;;;;;51.38;11.80;;;;;15.90;95841.00;;;;8347842;28;20225;-71
2023/03/30 14:06:53;;;;;;;16.02;5.32;;;;;15.90;95845.00;;;;8359306;28;20239;-68
2023/03/30 14:10:59;;;;;;;29.00;8.85;;;;;15.80;95847.00;;;;8364041;28;20810;-69
2023/03/30 14:15:16;;;;;;;20.55;6.18;;;;;15.50;95828.00;;;;8346608;28;20656;-70
2023/03/30 14:19:23;;;;;;;22.88;7.88;;;;;15.40;95822.00;;;;8350401;28;20209;-68
2023/03/30 14:23:34;;;;;;;10.85;4.75;;;;;15.30;95813.00;;;;8347410;28;20205;-69
2023/03/30 14:27:41;;;;;;;14.77;7.05;;;;;15.40;95802.00;;;;8343553;28;20262;-67
2023/03/30 14:31:50;;;;;;;13.13;4.60;;;;;15.50;95796.00;;;;8304136;28;20247;-67
2023/03/30 14:36:11;;;;;;;10.38;3.58;;;;;15.60;95795.00;;;;8320413;28;20293;-68
2023/03/30 14:40:18;;;;;;;9.27;3.78;;;;;15.60;95811.00;;;;8306407;28;20193;-68
2023/03/30 14:44:23;;;;;;;7.55;3.20;;;;;15.60;95810.00;;;;8306318;28;20550;-69
2023/03/30 14:48:30;;;;;;;4.63;3.78;;;;;15.50;95793.00;;;;8313428;28;20237;-70
2023/03/30 14:52:39;;;;;;;11.60;3.28;;;;;15.40;95791.00;;;;8305436;28;20198;-69
2023/03/30 14:56:45;;;;;;;7.55;3.85;;;;;15.40;95787.00;;;;8316635;28;20264;-69
2023/03/30 15:00:48;;;;;;;5.30;3.30;;;;;15.20;95797.00;;;;8319311;28;20200;-69
2023/03/30 15:04:56;;;;;;;5.20;3.13;;;;;15.10;95772.00;;;;8310200;28;20205;-69
2023/03/30 15:09:01;;;;;;;7.78;3.20;;;;;15.00;95757.00;;;;8296230;28;20829;-69
2023/03/30 15:13:12;;;;;;;9.07;3.00;;;;;14.90;95773.00;;;;8350075;28;20947;-69
2023/03/30 15:17:23;;;;;;;3.58;3.05;;;;;14.90;95769.00;;;;8351110;28;20224;-69
2023/03/30 15:21:29;;;;;;;4.95;3.22;;;;;14.90;95771.00;;;;8345489;28;20824;-68
2023/03/30 15:25:34;;;;;;;8.27;3.53;;;;;15.00;95767.00;;;;8343523;28;20234;-69
2023/03/30 15:29:39;;;;;;;5.18;3.15;;;;;15.00;95766.00;;;;8350473;28;20205;-69
2023/03/30 15:33:49;;;;;;;8.50;3.33;;;;;15.30;95791.00;;;;8346243;28;20289;-69
2023/03/30 15:37:57;;;;;;;6.53;2.95;;;;;15.70;95789.00;;;;8352494;28;20632;-68
2023/03/30 15:42:04;;;;;;;7.03;3.20;;;;;15.90;95777.00;;;;8345672;28;20231;-70
2023/03/30 15:46:12;;;;;;;6.32;3.55;;;;;15.70;95778.00;;;;8359382;28;20224;-69
2023/03/30 15:50:17;;;;;;;5.88;3.60;;;;;15.40;95765.00;;;;8349706;28;20255;-69
2023/03/30 15:54:37;;;;;;;9.05;3.17;;;;;15.10;95775.00;;;;8346637;28;20196;-70
2023/03/30 15:58:42;;;;;;;5.32;3.25;;;;;14.40;95772.00;;;;8348735;28;20216;-69
2023/03/30 16:02:48;;;;;;;7.18;3.67;;;;;14.00;95768.00;;;;8346267;28;20233;-71
2023/03/30 16:06:57;;;;;;;9.95;4.40;;;;;13.70;95766.00;;;;8347938;28;20244;-72
2023/03/30 16:11:05;;;;;;;11.90;4.35;;;;;13.50;95791.00;;;;8349659;28;20287;-71
2023/03/30 16:15:12;;;;;;;13.05;4.80;;;;;13.30;95765.00;;;;8348139;28;20208;-71
2023/03/30 16:19:20;;;;;;;11.35;4.90;;;;;13.30;95805.00;;;;8346437;28;20204;-68
2023/03/30 16:23:26;;;;;;;9.63;4.55;;;;;13.30;95800.00;;;;8343863;28;20232;-67
2023/03/30 16:27:32;;;;;;;10.75;4.95;;;;;13.20;95796.00;;;;8349218;28;20227;-69
2023/03/30 16:31:43;;;;;;;8.60;4.93;;;;;13.20;95804.00;;;;8346732;28;20305;-69
2023/03/30 16:35:46;;;;;;;10.95;4.55;;;;;13.10;95803.00;;;;8349035;28;20200;-69
2023/03/30 16:39:50;;;;;;;10.00;4.47;;;;;13.10;95784.00;;;;8355851;28;20201;-71
2023/03/30 16:43:54;;;;;;;7.47;4.38;;;;;13.10;95786.00;;;;8346645;28;20648;-71
2023/03/30 16:47:58;;;;;;;7.38;3.53;;;;;13.00;95790.00;;;;8347245;28;20232;-70
2023/03/30 16:52:01;;;;;;;7.75;3.75;;;;;13.00;95781.00;;;;8351607;28;20219;-70
2023/03/30 16:56:06;;;;;;;7.82;4.00;;;;;12.90;95769.00;;;;8352179;28;20203;-70
2023/03/30 17:00:29;;;;;;;9.73;3.90;;;;;12.80;95773.00;;;;8355613;28;20217;-70
2023/03/30 17:04:34;;;;;;;5.18;2.83;;;;;12.80;95770.00;;;;8355203;28;20284;-70
2023/03/30 17:08:37;;;;;;;6.63;2.42;;;;;12.70;95760.00;;;;8355776;28;20228;-70
2023/03/30 17:12:44;;;;;;;7.93;2.65;;;;;12.60;95761.00;;;;8352561;28;20622;-69
2023/03/30 17:16:50;;;;;;;4.40;2.00;;;;;12.50;95752.00;;;;8344444;28;20662;-69
2023/03/30 17:20:56;;;;;;;4.15;2.20;;;;;12.40;95767.00;;;;8358177;28;20196;-68
2023/03/30 17:25:02;;;;;;;4.90;2.40;;;;;12.30;95771.00;;;;8352909;28;20278;-69
2023/03/30 17:29:05;;;;;;;8.07;2.05;;;;;12.20;95775.00;;;;8357632;28;20763;-69
2023/03/30 17:33:11;;;;;;;3.63;1.98;;;;;12.10;95771.00;;;;8354585;28;20201;-70
2023/03/30 17:37:15;;;;;;;8.88;2.38;;;;;12.10;95787.00;;;;8354521;28;20209;-70
2023/03/30 17:41:19;;;;;;;2.85;2.00;;;;;12.10;95792.00;;;;8329657;28;20192;-69
2023/03/30 17:45:28;;;;;;;3.53;2.05;;;;;12.00;95798.00;;;;8347270;28;20199;-70
2023/03/30 17:49:32;;;;;;;4.43;1.77;;;;;11.90;95823.00;;;;8349220;28;20224;-71
2023/03/30 17:53:37;;;;;;;4.68;1.70;;;;;11.80;95828.00;;;;8332102;28;20212;-70
2023/03/30 17:57:41;;;;;;;3.97;1.70;;;;;11.80;95849.00;;;;8353841;28;20200;-71
2023/03/30 18:01:47;;;;;;;3.80;1.70;;;;;11.70;95856.00;;;;8345076;28;20682;-70
2023/03/30 18:05:54;;;;;;;1.92;1.60;;;;;11.60;95853.00;;;;8348603;28;20255;-71
2023/03/30 18:09:57;;;;;;;5.43;1.85;;;;;11.50;95875.00;;;;8349636;28;20231;-70
2023/03/30 18:14:04;;;;;;;36.50;17.75;;;;;11.50;95888.00;;;;8325612;28;20200;-69
2023/03/30 18:18:12;;;;;;;9.73;6.07;;;;;11.40;95883.00;;;;8338527;28;20612;-71
2023/03/30 18:22:19;;;;;;;14.82;7.35;;;;;11.40;95889.00;;;;8338771;28;20286;-71
2023/03/30 18:26:22;;;;;;;11.05;5.13;;;;;11.30;95891.00;;;;8326767;28;20195;-70
2023/03/30 18:30:30;;;;;;;7.88;2.38;;;;;11.30;95887.00;;;;8341852;28;20224;-70
2023/03/30 18:34:36;;;;;;;9.30;5.60;;;;;11.30;95887.00;;;;8342845;28;20261;-70
2023/03/30 18:38:41;;;;;;;10.07;6.43;;;;;11.30;95887.00;;;;8335693;28;20195;-71
2023/03/30 18:42:50;;;;;;;4.60;3.50;;;;;11.20;95897.00;;;;8339988;28;20208;-70
2023/03/30 18:46:53;;;;;;;7.60;3.92;;;;;11.20;95911.00;;;;8332350;28;20772;-70
2023/03/30 18:50:58;;;;;;;7.20;3.85;;;;;11.10;95923.00;;;;8350099;28;20200;-70
2023/03/30 18:55:06;;;;;;;3.92;2.38;;;;;11.00;95918.00;;;;8338821;28;20498;-71
2023/03/30 18:59:10;;;;;;;5.85;2.00;;;;;10.90;95910.00;;;;8341463;28;20194;-70
2023/03/30 19:03:13;;;;;;;7.68;2.50;;;;;10.80;95921.00;;;;8353315;28;20231;-69
2023/03/30 19:07:20;;;;;;;7.15;3.35;;;;;10.60;95929.00;;;;8364057;28;20228;-69
2023/03/30 19:11:27;;;;;;;14.65;9.75;;;;;10.50;95932.00;;;;8364042;28;20193;-70
2023/03/30 19:15:38;;;;;;;4.35;3.13;;;;;10.40;95935.00;;;;8364629;28;20624;-70
2023/03/30 19:19:42;;;;;;;21.50;15.70;;;;;10.30;95933.00;;;;8364029;28;20199;-69
2023/03/30 19:23:46;;;;;;;5.05;3.15;;;;;10.20;95939.00;;;;8363792;28;20199;-69
2023/03/30 19:27:53;;;;;;;7.85;2.85;;;;;10.10;95940.00;;;;8364122;28;20666;-69
2023/03/30 19:32:06;;;;;;;7.28;2.28;;;;;9.90;95935.00;;;;8363587;28;20246;-69
2023/03/30 19:36:14;;;;;;;5.03;2.40;;;;;9.70;95946.00;;;;8363982;28;20229;-69
2023/03/30 19:40:23;;;;;;;6.30;3.30;;;;;9.60;95938.00;;;;8363226;28;20183;-69
2023/03/30 19:44:31;;;;;;;4.55;2.35;;;;;9.50;95947.00;;;;8363805;28;20196;-69
2023/03/30 19:48:34;;;;;;;3.53;2.35;;;;;9.30;95938.00;;;;8346394;28;20560;-69
2023/03/30 19:52:39;;;;;;;5.00;2.60;;;;;9.10;95945.00;;;;8363295;28;20266;-67
2023/03/30 19:56:43;;;;;;;4.88;2.95;;;;;9.00;95945.00;;;;8364457;28;20254;-68
2023/03/30 20:00:50;;;;;;;11.50;3.25;;;;;8.90;95945.00;;;;8369990;28;20192;-69
2023/03/30 20:04:53;;;;;;;8.52;6.00;;;;;8.90;95946.00;;;;8369938;28;20689;-69
2023/03/30 20:09:06;;;;;;;9.15;3.15;;;;;8.90;95947.00;;;;8369817;28;20238;-69
2023/03/30 20:13:10;;;;;;;6.03;3.00;;;;;8.90;95944.00;;;;8369074;28;20216;-69
2023/03/30 20:17:17;;;;;;;7.90;2.87;;;;;8.80;95941.00;;;;8368949;28;20197;-69
2023/03/30 20:21:21;;;;;;;6.23;3.00;;;;;8.80;95958.00;;;;8369283;28;20584;-69
2023/03/30 20:25:24;;;;;;;6.85;3.05;;;;;8.70;95953.00;;;;8368939;28;20634;-69
2023/03/30 20:29:30;;;;;;;12.23;3.03;;;;;8.60;95955.00;;;;8369112;28;20228;-69
2023/03/30 20:33:37;;;;;;;8.37;2.80;;;;;8.60;95955.00;;;;8368488;28;20247;-69
2023/03/30 20:37:40;;;;;;;6.93;3.13;;;;;8.60;95950.00;;;;8369509;28;20538;-69